Harare, Zimbabwe
Current Conditions -  °F | °C
As of 9:00 PM on Sunday 23 Nov 2014 (Local Time) from FVHA Reporting Station
Clear Clear  
Wind Chill: 21°   Ceiling: Unl
Heat Index: 21°   Visibility: 6mi
Dew Point:   Wind: 8mph
Humidity: 35%   Direction: 60°ENE
Pressure: 30.18"   Gusts: NA
Location:  17.82°S, 31.05°E
Report Text: FVHA 231900Z 06007KT CAVOK 21/05 Q1022 NOSIG RMK QFE 853.9
Loading
Personal Weather Stations






























Interactive Weather Map New forecast layout! Learn more

10-Day Weather Forecast

Advertisements
Track Severe Weather on mobile